createdAt,value
2023-04-11T00:00:30.987Z,100.00
2023-04-11T00:03:03.200Z,100.00
2023-04-11T00:05:33.013Z,100.00
2023-04-11T00:07:59.103Z,100.00
2023-04-11T00:10:25.305Z,100.00
2023-04-11T00:12:55.845Z,100.00
2023-04-11T00:15:23.837Z,100.00
2023-04-11T00:17:50.257Z,100.00
2023-04-11T00:20:16.442Z,100.00
2023-04-11T00:22:43.099Z,100.00
2023-04-11T00:25:09.343Z,100.00
2023-04-11T00:27:35.443Z,100.00
2023-04-11T00:30:01.600Z,100.00
2023-04-11T00:32:27.710Z,100.00
2023-04-11T00:34:54.581Z,100.00
2023-04-11T00:37:23.242Z,100.00
2023-04-11T00:39:49.915Z,100.00
2023-04-11T00:42:16.436Z,100.00
2023-04-11T00:44:42.524Z,100.00
2023-04-11T00:47:08.957Z,100.00
2023-04-11T00:49:35.548Z,100.00
2023-04-11T00:52:02.522Z,100.00
2023-04-11T00:54:30.310Z,100.00
2023-04-11T00:57:01.132Z,100.00
2023-04-11T00:59:27.992Z,100.00
2023-04-11T01:01:54.546Z,100.00
2023-04-11T01:04:21.120Z,100.00
2023-04-11T01:06:50.646Z,100.00
2023-04-11T01:09:18.115Z,100.00
2023-04-11T01:11:44.205Z,100.00
2023-04-11T01:14:11.485Z,100.00
2023-04-11T01:16:37.644Z,100.00
2023-04-11T01:19:03.885Z,100.00
2023-04-11T01:21:31.188Z,100.00
2023-04-11T01:23:57.774Z,100.00
2023-04-11T01:26:23.847Z,100.00
2023-04-11T01:28:50.675Z,100.00
2023-04-11T01:31:16.796Z,100.00
2023-04-11T01:33:42.955Z,100.00
2023-04-11T01:36:09.343Z,100.00
2023-04-11T01:38:35.660Z,100.00
2023-04-11T01:41:02.100Z,100.00
2023-04-11T01:43:28.254Z,100.00
2023-04-11T01:45:54.347Z,100.00
2023-04-11T01:48:20.588Z,100.00
2023-04-11T01:50:46.700Z,100.00
2023-04-11T01:53:12.862Z,100.00
2023-04-11T01:55:38.926Z,100.00
2023-04-11T01:58:05.151Z,100.00
2023-04-11T02:00:31.848Z,100.00
2023-04-11T02:02:58.024Z,100.00
2023-04-11T02:05:24.304Z,100.00
2023-04-11T02:07:50.393Z,100.00
2023-04-11T02:10:16.458Z,100.00
2023-04-11T02:12:42.528Z,100.00
2023-04-11T02:15:08.956Z,100.00
2023-04-11T02:17:36.153Z,100.00
2023-04-11T02:20:06.245Z,100.00
2023-04-11T02:22:32.294Z,100.00
2023-04-11T02:24:58.375Z,100.00
2023-04-11T02:27:24.553Z,100.00
2023-04-11T02:29:50.675Z,100.00
2023-04-11T02:32:16.802Z,100.00
2023-04-11T02:34:42.911Z,100.00
2023-04-11T02:37:09.488Z,100.00
2023-04-11T02:39:35.544Z,100.00
2023-04-11T02:42:01.655Z,100.00
2023-04-11T02:44:28.780Z,100.00
2023-04-11T02:46:55.345Z,100.00
2023-04-11T02:49:21.431Z,100.00
2023-04-11T02:51:47.497Z,100.00
2023-04-11T02:54:13.639Z,100.00
2023-04-11T02:56:39.798Z,100.00
2023-04-11T02:59:06.375Z,100.00
2023-04-11T03:01:32.701Z,100.00
2023-04-11T03:03:59.173Z,100.00
2023-04-11T03:06:26.334Z,100.00
2023-04-11T03:08:52.407Z,100.00
2023-04-11T03:11:18.512Z,100.00
2023-04-11T03:13:44.565Z,100.00
2023-04-11T03:16:13.000Z,100.00
2023-04-11T03:18:39.189Z,100.00
2023-04-11T03:21:07.379Z,100.00
2023-04-11T03:23:33.465Z,100.00
2023-04-11T03:25:59.977Z,100.00
2023-04-11T03:28:26.053Z,100.00
2023-04-11T03:30:53.823Z,100.00
2023-04-11T03:33:19.935Z,100.00
2023-04-11T03:35:46.119Z,100.00
2023-04-11T03:38:12.294Z,100.00
2023-04-11T03:40:38.421Z,100.00
2023-04-11T03:43:04.978Z,100.00
2023-04-11T03:45:31.169Z,100.00
2023-04-11T03:47:57.274Z,100.00
2023-04-11T03:50:23.362Z,100.00
2023-04-11T03:52:49.549Z,100.00
2023-04-11T03:55:15.794Z,100.00
2023-04-11T03:57:42.088Z,100.00
2023-04-11T04:00:09.435Z,100.00
2023-04-11T04:02:35.654Z,100.00
2023-04-11T04:05:01.860Z,100.00
2023-04-11T04:07:28.170Z,100.00
2023-04-11T04:09:54.607Z,100.00
2023-04-11T04:12:21.086Z,100.00
2023-04-11T04:14:47.356Z,100.00
2023-04-11T04:17:14.859Z,100.00
2023-04-11T04:19:41.817Z,100.00
2023-04-11T04:22:11.554Z,100.00
2023-04-11T04:24:38.841Z,100.00
2023-04-11T04:27:13.044Z,100.00
2023-04-11T04:29:45.684Z,100.00
2023-04-11T04:32:13.987Z,100.00
2023-04-11T04:34:54.272Z,100.00
2023-04-11T04:37:22.526Z,100.00
2023-04-11T04:39:50.217Z,100.00
2023-04-11T04:42:17.062Z,100.00
2023-04-11T04:44:43.386Z,100.00
2023-04-11T04:47:09.572Z,100.00
2023-04-11T04:49:35.638Z,100.00
2023-04-11T04:52:01.706Z,100.00
2023-04-11T04:54:28.040Z,100.00
2023-04-11T04:56:54.830Z,100.00
2023-04-11T04:59:20.980Z,100.00
2023-04-11T05:01:50.753Z,100.00
2023-04-11T05:04:17.029Z,100.00
2023-04-11T05:06:43.441Z,100.00
2023-04-11T05:09:09.626Z,100.00
2023-04-11T05:11:35.673Z,100.00
2023-04-11T05:14:01.745Z,100.00
2023-04-11T05:16:27.870Z,100.00
2023-04-11T05:18:53.997Z,100.00
2023-04-11T05:21:20.223Z,100.00
2023-04-11T05:23:46.405Z,100.00
2023-04-11T05:26:12.730Z,100.00
2023-04-11T05:28:38.915Z,100.00
2023-04-11T05:31:05.952Z,100.00
2023-04-11T05:33:32.304Z,100.00
2023-04-11T05:35:58.412Z,100.00
2023-04-11T05:38:24.828Z,100.00
2023-04-11T05:40:51.179Z,100.00
2023-04-11T05:43:17.315Z,100.00
2023-04-11T05:45:47.121Z,100.00
2023-04-11T05:48:16.028Z,100.00
2023-04-11T05:50:42.404Z,100.00
2023-04-11T05:53:08.530Z,100.00
2023-04-11T05:55:36.380Z,100.00
2023-04-11T05:58:02.755Z,100.00
2023-04-11T06:00:30.302Z,100.00
2023-04-11T06:02:56.927Z,100.00
2023-04-11T06:05:23.935Z,100.00
2023-04-11T06:07:50.481Z,100.00
2023-04-11T06:10:16.554Z,100.00
2023-04-11T06:12:42.700Z,100.00
2023-04-11T06:15:11.112Z,100.00
2023-04-11T06:17:37.731Z,100.00
2023-04-11T06:20:06.230Z,100.00
2023-04-11T06:22:32.437Z,100.00
2023-04-11T06:24:58.510Z,100.00
2023-04-11T06:27:25.750Z,100.00
2023-04-11T06:29:51.838Z,100.00
2023-04-11T06:32:17.987Z,100.00
2023-04-11T06:34:44.096Z,100.00
2023-04-11T06:37:10.330Z,100.00
2023-04-11T06:39:36.475Z,100.00
2023-04-11T06:42:03.046Z,100.00
2023-04-11T06:44:30.376Z,100.00
2023-04-11T06:46:58.347Z,100.00
2023-04-11T06:49:24.426Z,100.00
2023-04-11T06:51:50.980Z,100.00
2023-04-11T06:54:17.787Z,100.00
2023-04-11T06:56:43.921Z,100.00
2023-04-11T06:59:10.226Z,100.00
2023-04-11T07:01:38.613Z,100.00
2023-04-11T07:04:05.885Z,100.00
2023-04-11T07:06:34.998Z,100.00
2023-04-11T07:09:02.265Z,100.00
2023-04-11T07:11:28.464Z,100.00
2023-04-11T07:13:55.655Z,100.00
2023-04-11T07:16:22.570Z,100.00
2023-04-11T07:18:48.909Z,100.00
2023-04-11T07:21:15.039Z,100.00
2023-04-11T07:23:41.986Z,100.00
2023-04-11T07:26:10.496Z,100.00
2023-04-11T07:28:37.849Z,100.00
2023-04-11T07:31:04.420Z,100.00
2023-04-11T07:33:30.607Z,100.00
2023-04-11T07:35:56.729Z,100.00
2023-04-11T07:38:28.911Z,100.00
2023-04-11T07:40:55.985Z,100.00
2023-04-11T07:43:23.192Z,100.00
2023-04-11T07:45:49.427Z,100.00
2023-04-11T07:48:15.498Z,100.00
2023-04-11T07:50:41.582Z,100.00
2023-04-11T07:53:07.652Z,100.00
2023-04-11T07:55:33.753Z,100.00
2023-04-11T07:57:59.897Z,100.00
2023-04-11T08:00:26.438Z,100.00
2023-04-11T08:02:52.648Z,100.00
2023-04-11T08:05:19.270Z,100.00
2023-04-11T08:07:45.461Z,100.00
2023-04-11T08:10:11.902Z,100.00
2023-04-11T08:12:38.082Z,100.00
2023-04-11T08:15:04.553Z,100.00
2023-04-11T08:17:36.942Z,100.00
2023-04-11T08:20:13.200Z,100.00
2023-04-11T08:22:41.020Z,100.00
2023-04-11T08:25:11.661Z,100.00
2023-04-11T08:27:38.432Z,100.00
2023-04-11T08:30:07.631Z,100.00
2023-04-11T08:32:36.954Z,100.00
2023-04-11T08:35:03.996Z,100.00
2023-04-11T08:37:30.583Z,100.00
2023-04-11T08:39:56.916Z,100.00
2023-04-11T08:42:23.566Z,100.00
2023-04-11T08:44:57.454Z,100.00
2023-04-11T08:47:24.144Z,100.00
2023-04-11T08:49:50.806Z,100.00
2023-04-11T08:52:20.870Z,100.00
2023-04-11T08:54:47.885Z,100.00
2023-04-11T08:57:43.311Z,99.88
2023-04-11T09:00:18.076Z,100.00
2023-04-11T09:03:01.056Z,100.00
2023-04-11T09:05:29.852Z,100.00
2023-04-11T09:07:58.204Z,100.00
2023-04-11T09:10:25.263Z,100.00
2023-04-11T09:12:53.361Z,100.00
2023-04-11T09:15:25.000Z,100.00
2023-04-11T09:17:51.669Z,100.00
2023-04-11T09:20:25.383Z,100.00
2023-04-11T09:22:52.862Z,100.00
2023-04-11T09:25:20.426Z,98.04
2023-04-11T09:27:47.413Z,97.87
2023-04-11T09:30:24.652Z,86.76
2023-04-11T09:32:55.383Z,72.14
2023-04-11T09:35:24.260Z,68.62
2023-04-11T09:37:55.879Z,64.61
2023-04-11T09:40:27.200Z,67.43
2023-04-11T09:43:01.092Z,59.48
2023-04-11T09:45:28.441Z,69.36
2023-04-11T09:47:56.348Z,66.93
2023-04-11T09:50:23.492Z,58.64
2023-04-11T09:52:49.805Z,58.83
2023-04-11T09:55:19.041Z,59.74
2023-04-11T09:57:47.260Z,56.51
2023-04-11T10:00:22.164Z,55.64
2023-04-11T10:02:51.971Z,57.16
2023-04-11T10:05:19.781Z,56.38
2023-04-11T10:07:52.258Z,55.50
2023-04-11T10:10:20.522Z,56.57
2023-04-11T10:12:46.972Z,55.63
2023-04-11T10:15:13.288Z,50.29
2023-04-11T10:17:40.368Z,53.19
2023-04-11T10:20:45.522Z,53.35
2023-04-11T10:23:13.247Z,52.78
2023-04-11T10:25:59.529Z,52.10
2023-04-11T10:28:29.396Z,51.80
2023-04-11T10:31:01.128Z,51.44
2023-04-11T10:33:27.428Z,51.27
2023-04-11T10:36:04.694Z,54.41
2023-04-11T10:38:42.974Z,50.18
2023-04-11T10:41:22.262Z,49.43
2023-04-11T10:43:49.079Z,49.23
2023-04-11T10:46:25.330Z,48.95
2023-04-11T10:49:02.463Z,48.16
2023-04-11T10:51:30.768Z,46.22
2023-04-11T10:54:01.043Z,46.46
2023-04-11T10:56:39.533Z,45.02
2023-04-11T10:59:05.636Z,45.96
2023-04-11T11:01:37.617Z,45.46
2023-04-11T11:04:09.532Z,45.34
2023-04-11T11:06:46.218Z,44.11
2023-04-11T11:09:21.248Z,43.36
2023-04-11T11:12:04.621Z,43.39
2023-04-11T11:14:30.744Z,43.33
2023-04-11T11:16:56.960Z,43.32
2023-04-11T11:19:23.160Z,42.79
2023-04-11T11:21:51.239Z,40.60
2023-04-11T11:24:26.867Z,41.99
2023-04-11T11:26:54.281Z,41.00
2023-04-11T11:29:37.048Z,40.96
2023-04-11T11:32:07.759Z,42.35
2023-04-11T11:34:39.695Z,41.76
2023-04-11T11:37:10.506Z,42.41
2023-04-11T11:39:42.996Z,42.95
2023-04-11T11:42:17.458Z,42.46
2023-04-11T11:44:48.177Z,42.75
2023-04-11T11:47:18.270Z,42.34
2023-04-11T11:49:56.051Z,41.64
2023-04-11T11:52:36.765Z,40.53
2023-04-11T11:55:04.991Z,40.75
2023-04-11T11:57:34.080Z,41.08
2023-04-11T12:00:09.349Z,41.73
2023-04-11T12:02:35.798Z,42.82
2023-04-11T12:05:05.247Z,42.64
2023-04-11T12:07:39.878Z,41.57
2023-04-11T12:10:08.281Z,40.34
2023-04-11T12:12:35.940Z,41.90
2023-04-11T12:15:03.171Z,38.97
2023-04-11T12:17:35.328Z,39.73
2023-04-11T12:20:07.586Z,40.50
2023-04-11T12:22:34.671Z,40.13
2023-04-11T12:25:12.352Z,41.29
2023-04-11T12:27:41.627Z,41.17
2023-04-11T12:30:14.464Z,39.89
2023-04-11T12:32:44.003Z,40.32
2023-04-11T12:35:13.565Z,40.10
2023-04-11T12:37:44.164Z,39.83
2023-04-11T12:40:15.199Z,40.94
2023-04-11T12:42:56.986Z,40.52
2023-04-11T12:45:24.347Z,40.86
2023-04-11T12:47:51.617Z,39.36
2023-04-11T12:50:22.710Z,39.65
2023-04-11T12:52:52.753Z,38.15
2023-04-11T12:55:23.894Z,39.99
2023-04-11T12:57:53.871Z,38.60
2023-04-11T13:00:26.202Z,40.94
2023-04-11T13:02:57.856Z,39.24
2023-04-11T13:05:27.172Z,38.71
2023-04-11T13:08:03.107Z,38.62
2023-04-11T13:10:33.696Z,37.57
2023-04-11T13:13:17.018Z,39.34
2023-04-11T13:15:50.300Z,39.77
2023-04-11T13:18:16.483Z,40.55
2023-04-11T13:20:42.744Z,41.04
2023-04-11T13:23:10.438Z,41.61
2023-04-11T13:25:45.706Z,40.42
2023-04-11T13:28:13.544Z,39.20
2023-04-11T13:30:45.645Z,38.26
2023-04-11T13:33:19.741Z,37.38
2023-04-11T13:35:51.165Z,38.20
2023-04-11T13:38:21.745Z,38.64
2023-04-11T13:40:52.593Z,38.02
2023-04-11T13:43:23.162Z,38.31
2023-04-11T13:45:54.065Z,39.13
2023-04-11T13:48:24.360Z,38.23
2023-04-11T13:50:59.140Z,39.63
2023-04-11T13:53:29.216Z,38.93
2023-04-11T13:56:00.488Z,38.81
2023-04-11T13:58:31.363Z,39.18
2023-04-11T14:01:01.874Z,38.11
2023-04-11T14:03:32.912Z,38.38
2023-04-11T14:06:03.049Z,37.90
2023-04-11T14:08:38.788Z,38.99
2023-04-11T14:11:09.338Z,38.11
2023-04-11T14:13:40.062Z,39.39
2023-04-11T14:16:13.465Z,39.33
2023-04-11T14:18:44.132Z,38.97
2023-04-11T14:21:14.984Z,38.27
2023-04-11T14:23:45.196Z,37.30
2023-04-11T14:26:16.560Z,35.99
2023-04-11T14:28:46.439Z,34.70
2023-04-11T14:31:17.187Z,34.42
2023-04-11T14:33:52.859Z,34.67
2023-04-11T14:36:21.578Z,32.80
2023-04-11T14:38:51.704Z,34.48
2023-04-11T14:41:22.701Z,34.23
2023-04-11T14:43:52.859Z,34.81
2023-04-11T14:46:24.088Z,35.82
2023-04-11T14:48:55.333Z,34.95
2023-04-11T14:51:29.062Z,35.17
2023-04-11T14:54:00.040Z,35.27
2023-04-11T14:56:30.952Z,35.14
2023-04-11T14:59:00.927Z,34.61
2023-04-11T15:01:31.587Z,33.48
2023-04-11T15:04:02.267Z,32.47
2023-04-11T15:06:32.631Z,33.36
2023-04-11T15:09:06.419Z,34.46
2023-04-11T15:11:36.611Z,34.95
2023-04-11T15:14:07.045Z,35.16
2023-04-11T15:16:37.612Z,35.94
2023-04-11T15:19:09.226Z,35.45
2023-04-11T15:21:40.456Z,35.10
2023-04-11T15:24:10.936Z,35.10
2023-04-11T15:26:45.889Z,34.59
2023-04-11T15:29:17.017Z,33.88
2023-04-11T15:31:48.465Z,33.61
2023-04-11T15:34:24.417Z,34.02
2023-04-11T15:36:53.044Z,34.67
2023-04-11T15:39:23.381Z,35.46
2023-04-11T15:41:54.241Z,35.83
2023-04-11T15:44:24.897Z,35.96
2023-04-11T15:46:56.017Z,35.07
2023-04-11T15:49:26.326Z,35.38
2023-04-11T15:52:00.697Z,35.78
2023-04-11T15:54:32.059Z,36.06
2023-04-11T15:57:03.416Z,35.78
2023-04-11T15:59:37.135Z,36.62
2023-04-11T16:02:04.973Z,36.27
2023-04-11T16:04:38.707Z,37.08
2023-04-11T16:07:06.390Z,37.52
2023-04-11T16:09:43.396Z,37.41
2023-04-11T16:12:13.255Z,37.81
2023-04-11T16:14:45.163Z,36.79
2023-04-11T16:17:19.938Z,37.53
2023-04-11T16:19:51.327Z,38.20
2023-04-11T16:22:20.508Z,38.16
2023-04-11T16:24:51.427Z,37.71
2023-04-11T16:27:22.393Z,37.38
2023-04-11T16:29:59.025Z,38.06
2023-04-11T16:32:25.127Z,38.33
2023-04-11T16:35:02.901Z,38.09
2023-04-11T16:37:34.498Z,38.42
2023-04-11T16:40:10.309Z,38.89
2023-04-11T16:42:44.356Z,38.09
2023-04-11T16:45:13.801Z,38.60
2023-04-11T16:47:44.269Z,38.39
2023-04-11T16:50:17.313Z,38.27
2023-04-11T16:52:47.899Z,39.05
2023-04-11T16:55:18.555Z,38.91
2023-04-11T16:57:49.023Z,38.25
2023-04-11T17:00:20.061Z,38.65
2023-04-11T17:02:51.051Z,39.07
2023-04-11T17:05:23.273Z,38.60
2023-04-11T17:07:51.621Z,38.96
2023-04-11T17:10:22.187Z,38.68
2023-04-11T17:12:53.858Z,38.57
2023-04-11T17:15:23.851Z,39.02
2023-04-11T17:17:57.655Z,39.12
2023-04-11T17:20:27.433Z,38.79
2023-04-11T17:22:58.961Z,39.47
2023-04-11T17:25:37.609Z,39.01
2023-04-11T17:28:07.896Z,39.04
2023-04-11T17:30:38.255Z,39.38
2023-04-11T17:33:09.371Z,39.44
2023-04-11T17:35:39.955Z,39.67
2023-04-11T17:38:14.838Z,39.46
2023-04-11T17:40:42.264Z,39.55
2023-04-11T17:43:15.832Z,39.45
2023-04-11T17:45:46.916Z,39.97
2023-04-11T17:48:17.692Z,40.19
2023-04-11T17:50:51.089Z,40.02
2023-04-11T17:53:21.907Z,40.10
2023-04-11T17:55:53.751Z,40.26
2023-04-11T17:58:23.357Z,40.41
2023-04-11T18:00:56.937Z,40.01
2023-04-11T18:03:24.876Z,40.15
2023-04-11T18:05:55.627Z,40.08
2023-04-11T18:08:46.862Z,40.10
2023-04-11T18:11:14.723Z,40.13
2023-04-11T18:13:44.148Z,40.94
2023-04-11T18:16:17.734Z,41.91
2023-04-11T18:18:45.270Z,42.90
2023-04-11T18:21:11.557Z,43.29
2023-04-11T18:23:38.180Z,44.22
2023-04-11T18:26:10.826Z,44.63
2023-04-11T18:28:41.065Z,45.85
2023-04-11T18:31:11.955Z,46.04
2023-04-11T18:33:46.705Z,47.25
2023-04-11T18:36:15.832Z,47.18
2023-04-11T18:38:46.593Z,48.35
2023-04-11T18:41:18.479Z,48.75
2023-04-11T18:43:47.888Z,49.89
2023-04-11T18:46:19.000Z,49.86
2023-04-11T18:48:49.337Z,49.90
2023-04-11T18:51:22.468Z,49.27
2023-04-11T18:53:53.876Z,50.50
2023-04-11T18:56:23.629Z,51.58
2023-04-11T18:58:56.452Z,51.20
2023-04-11T19:01:31.171Z,50.57
2023-04-11T19:03:58.461Z,52.92
2023-04-11T19:06:28.828Z,52.39
2023-04-11T19:09:01.539Z,51.66
2023-04-11T19:11:31.825Z,51.77
2023-04-11T19:14:02.709Z,49.90
2023-04-11T19:16:34.001Z,49.34
2023-04-11T19:19:03.905Z,50.50
2023-04-11T19:21:34.490Z,50.44
2023-04-11T19:24:05.129Z,49.54
2023-04-11T19:26:35.251Z,49.40
2023-04-11T19:29:06.411Z,49.42
2023-04-11T19:31:37.205Z,49.79
2023-04-11T19:34:08.115Z,49.45
2023-04-11T19:36:41.881Z,49.69
2023-04-11T19:39:11.911Z,49.41
2023-04-11T19:41:45.720Z,49.14
2023-04-11T19:44:16.632Z,49.89
2023-04-11T19:46:47.334Z,50.12
2023-04-11T19:49:17.511Z,50.22
2023-04-11T19:51:48.153Z,49.96
2023-04-11T19:54:18.625Z,49.43
2023-04-11T19:56:52.978Z,49.70
2023-04-11T19:59:21.038Z,49.28
2023-04-11T20:01:54.063Z,49.58
2023-04-11T20:04:24.667Z,50.18
2023-04-11T20:06:57.740Z,49.95
2023-04-11T20:09:29.031Z,49.82
2023-04-11T20:11:59.387Z,50.09
2023-04-11T20:14:28.824Z,49.99
2023-04-11T20:17:00.051Z,50.19
2023-04-11T20:19:36.869Z,50.88
2023-04-11T20:22:04.921Z,50.87
2023-04-11T20:24:34.896Z,51.89
2023-04-11T20:27:05.583Z,51.33
2023-04-11T20:29:37.621Z,51.68
2023-04-11T20:32:07.721Z,52.45
2023-04-11T20:34:37.207Z,53.19
2023-04-11T20:37:12.369Z,53.73
2023-04-11T20:39:43.508Z,54.06
2023-04-11T20:42:14.672Z,54.08
2023-04-11T20:44:44.435Z,53.93
2023-04-11T20:47:15.353Z,54.91
2023-04-11T20:49:48.945Z,55.83
2023-04-11T20:52:18.175Z,55.63
2023-04-11T20:54:53.897Z,55.85
2023-04-11T20:57:25.976Z,55.73
2023-04-11T20:59:59.662Z,55.34
2023-04-11T21:02:36.415Z,55.63
2023-04-11T21:05:07.806Z,56.76
2023-04-11T21:07:38.969Z,56.61
2023-04-11T21:10:12.658Z,56.99
2023-04-11T21:12:50.287Z,56.64
2023-04-11T21:15:17.711Z,56.99
2023-04-11T21:17:45.159Z,57.30
2023-04-11T21:20:19.386Z,57.33
2023-04-11T21:22:48.438Z,57.81
2023-04-11T21:25:27.284Z,57.97
2023-04-11T21:27:57.933Z,57.92
2023-04-11T21:30:29.838Z,59.38
2023-04-11T21:32:59.259Z,59.62
2023-04-11T21:35:34.302Z,57.50
2023-04-11T21:38:04.997Z,58.56
2023-04-11T21:40:35.719Z,59.16
2023-04-11T21:43:05.791Z,58.80
2023-04-11T21:45:35.689Z,64.06
2023-04-11T21:48:06.224Z,61.23
2023-04-11T21:50:36.603Z,60.13
2023-04-11T21:53:10.330Z,62.99
2023-04-11T21:55:47.263Z,62.16
2023-04-11T21:58:27.973Z,62.20
2023-04-11T22:01:02.056Z,61.73
2023-04-11T22:03:28.571Z,61.88
2023-04-11T22:05:57.490Z,62.52
2023-04-11T22:08:28.505Z,62.60
2023-04-11T22:10:56.136Z,62.37
2023-04-11T22:13:22.395Z,63.30
2023-04-11T22:15:57.882Z,65.87
2023-04-11T22:18:31.214Z,64.89
2023-04-11T22:20:57.270Z,65.32
2023-04-11T22:23:24.486Z,65.60
2023-04-11T22:25:58.736Z,65.87
2023-04-11T22:28:26.933Z,63.30
2023-04-11T22:30:57.880Z,62.67
2023-04-11T22:33:29.119Z,62.10
2023-04-11T22:36:08.898Z,62.24
2023-04-11T22:38:36.281Z,62.41
2023-04-11T22:41:13.796Z,62.68
2023-04-11T22:43:47.316Z,64.69
2023-04-11T22:46:13.496Z,66.34
2023-04-11T22:48:45.900Z,67.25
2023-04-11T22:51:15.783Z,68.11
2023-04-11T22:53:47.612Z,68.65
2023-04-11T22:56:17.504Z,70.39
2023-04-11T22:58:48.694Z,70.32
2023-04-11T23:01:21.530Z,70.32
2023-04-11T23:03:51.115Z,69.89
2023-04-11T23:06:22.010Z,70.56
2023-04-11T23:08:56.348Z,72.08
2023-04-11T23:11:26.511Z,72.08
2023-04-11T23:13:57.191Z,71.76
2023-04-11T23:16:27.500Z,72.91
2023-04-11T23:18:58.540Z,72.32
2023-04-11T23:21:29.549Z,72.31
2023-04-11T23:23:59.065Z,71.76
2023-04-11T23:26:32.793Z,72.88
2023-04-11T23:29:02.898Z,72.46
2023-04-11T23:31:33.605Z,73.16
2023-04-11T23:34:04.402Z,73.93
2023-04-11T23:36:34.460Z,75.46
2023-04-11T23:39:05.980Z,74.99
2023-04-11T23:41:36.667Z,75.46
2023-04-11T23:44:11.223Z,74.64
2023-04-11T23:46:42.144Z,75.45
2023-04-11T23:49:12.053Z,76.71
2023-04-11T23:51:45.345Z,77.30
2023-04-11T23:54:16.557Z,77.41
2023-04-11T23:56:46.679Z,77.62
2023-04-11T23:59:17.264Z,78.54
